createdAt,value
2023-03-03T00:00:02.074Z,-0.13
2023-03-03T00:01:01.528Z,-0.13
2023-03-03T00:02:01.918Z,-0.15
2023-03-03T00:03:01.031Z,-0.12
2023-03-03T00:04:01.005Z,-0.19
2023-03-03T00:05:00.658Z,-0.12
2023-03-03T00:06:00.826Z,-0.12
2023-03-03T00:07:03.939Z,-0.13
2023-03-03T00:08:01.990Z,-0.16
2023-03-03T00:09:01.401Z,-0.13
2023-03-03T00:10:01.564Z,-0.16
2023-03-03T00:11:01.719Z,-0.27
2023-03-03T00:12:01.864Z,-0.27
2023-03-03T00:13:02.029Z,-0.23
2023-03-03T00:14:02.218Z,-0.23
2023-03-03T00:15:03.023Z,-0.23
2023-03-03T00:16:02.624Z,-0.15
2023-03-03T00:17:02.711Z,-0.18
2023-03-03T00:18:02.900Z,-0.16
2023-03-03T00:19:03.540Z,-0.24
2023-03-03T00:20:04.486Z,-0.37
2023-03-03T00:21:03.364Z,-0.33
2023-03-03T00:22:04.513Z,-0.34
2023-03-03T00:23:04.488Z,-0.29
2023-03-03T00:24:03.892Z,-0.29
2023-03-03T00:25:04.981Z,-0.24
2023-03-03T00:26:05.034Z,-0.18
2023-03-03T00:27:05.480Z,-0.11
2023-03-03T00:28:05.477Z,-0.12
2023-03-03T00:29:05.480Z,-0.08
2023-03-03T00:30:04.858Z,-0.09
2023-03-03T00:31:05.066Z,-0.22
2023-03-03T00:32:05.308Z,-0.11
2023-03-03T00:33:05.982Z,-0.12
2023-03-03T00:34:06.522Z,-0.19
2023-03-03T00:35:06.429Z,-0.18
2023-03-03T00:36:05.968Z,-0.18
2023-03-03T00:37:06.915Z,-0.27
2023-03-03T00:38:07.292Z,-0.09
2023-03-03T00:39:06.417Z,-0.16
2023-03-03T00:40:06.588Z,-0.11
2023-03-03T00:41:06.754Z,-0.09
2023-03-03T00:42:07.041Z,-0.12
2023-03-03T00:43:07.118Z,-0.09
2023-03-03T00:44:07.330Z,-0.16
2023-03-03T00:45:07.490Z,-0.05
2023-03-03T00:46:07.720Z,-0.23
2023-03-03T00:47:07.853Z,-0.26
2023-03-03T00:48:09.020Z,-0.30
2023-03-03T00:49:08.542Z,-0.31
2023-03-03T00:50:08.985Z,-0.33
2023-03-03T00:51:08.502Z,-0.29
2023-03-03T00:52:09.539Z,-0.29
2023-03-03T00:53:08.805Z,-0.23
2023-03-03T00:54:09.994Z,-0.31
2023-03-03T00:55:09.133Z,-0.33
2023-03-03T00:56:09.279Z,-0.31
2023-03-03T00:57:10.027Z,-0.18
2023-03-03T00:58:09.672Z,-0.27
2023-03-03T00:59:09.865Z,-0.16
2023-03-03T01:00:10.539Z,-0.19
2023-03-03T01:01:11.037Z,-0.30
2023-03-03T01:02:10.311Z,-0.27
2023-03-03T01:03:10.481Z,-0.23
2023-03-03T01:04:10.656Z,-0.31
2023-03-03T01:05:12.498Z,-0.37
2023-03-03T01:06:10.992Z,-0.37
2023-03-03T01:07:11.162Z,-0.34
2023-03-03T01:08:11.322Z,-0.36
2023-03-03T01:09:11.478Z,-0.36
2023-03-03T01:10:11.640Z,-0.31
2023-03-03T01:11:12.530Z,-0.37
2023-03-03T01:12:11.909Z,-0.37
2023-03-03T01:13:13.045Z,-0.41
2023-03-03T01:14:12.353Z,-0.45
2023-03-03T01:15:12.424Z,-0.44
2023-03-03T01:16:12.586Z,-0.62
2023-03-03T01:17:13.752Z,-0.60
2023-03-03T01:18:12.899Z,-0.50
2023-03-03T01:19:13.546Z,-0.55
2023-03-03T01:20:13.165Z,-0.47
2023-03-03T01:21:13.288Z,-0.45
2023-03-03T01:22:13.438Z,-0.41
2023-03-03T01:23:14.544Z,-0.45
2023-03-03T01:24:13.794Z,-0.47
2023-03-03T01:25:14.892Z,-0.44
2023-03-03T01:26:15.506Z,-0.44
2023-03-03T01:27:14.357Z,-0.41
2023-03-03T01:28:14.499Z,-0.55
2023-03-03T01:29:14.697Z,-0.44
2023-03-03T01:30:14.860Z,-0.59
2023-03-03T01:31:15.006Z,-0.52
2023-03-03T01:32:15.174Z,-0.41
2023-03-03T01:33:15.995Z,-0.51
2023-03-03T01:34:15.506Z,-0.42
2023-03-03T01:35:15.657Z,-0.42
2023-03-03T01:36:16.534Z,-0.39
2023-03-03T01:37:16.053Z,-0.30
2023-03-03T01:38:16.247Z,-0.33
2023-03-03T01:39:16.428Z,-0.23
2023-03-03T01:40:16.563Z,-0.27
2023-03-03T01:41:16.726Z,-0.34
2023-03-03T01:42:17.534Z,-0.31
2023-03-03T01:43:17.032Z,-0.44
2023-03-03T01:44:17.191Z,-0.41
2023-03-03T01:45:17.573Z,-0.42
2023-03-03T01:46:18.086Z,-0.41
2023-03-03T01:47:19.510Z,-0.31
2023-03-03T01:48:17.872Z,-0.44
2023-03-03T01:49:18.537Z,-0.45
2023-03-03T01:50:18.187Z,-0.51
2023-03-03T01:51:19.006Z,-0.59
2023-03-03T01:52:18.559Z,-0.55
2023-03-03T01:53:18.721Z,-0.47
2023-03-03T01:54:18.883Z,-0.48
2023-03-03T01:55:19.017Z,-0.51
2023-03-03T01:56:19.197Z,-0.44
2023-03-03T01:57:19.360Z,-0.39
2023-03-03T01:58:19.550Z,-0.37
2023-03-03T01:59:19.743Z,-0.36
2023-03-03T02:00:19.972Z,-0.47
2023-03-03T02:01:20.232Z,-0.47
2023-03-03T02:02:20.301Z,-0.50
2023-03-03T02:03:20.473Z,-0.44
2023-03-03T02:04:20.681Z,-0.39
2023-03-03T02:05:20.877Z,-0.33
2023-03-03T02:06:21.100Z,-0.37
2023-03-03T02:07:21.312Z,-0.41
2023-03-03T02:08:21.489Z,-0.42
2023-03-03T02:09:21.685Z,-0.29
2023-03-03T02:10:21.870Z,-0.29
2023-03-03T02:11:22.083Z,-0.27
2023-03-03T02:12:22.259Z,-0.36
2023-03-03T02:13:22.445Z,-0.36
2023-03-03T02:14:22.661Z,-0.42
2023-03-03T02:15:22.878Z,-0.48
2023-03-03T02:16:23.084Z,-0.42
2023-03-03T02:17:23.258Z,-0.47
2023-03-03T02:18:23.430Z,-0.45
2023-03-03T02:19:23.621Z,-0.50
2023-03-03T02:20:23.803Z,-0.51
2023-03-03T02:21:24.571Z,-0.48
2023-03-03T02:22:24.189Z,-0.60
2023-03-03T02:23:24.364Z,-0.63
2023-03-03T02:24:24.588Z,-0.52
2023-03-03T02:25:24.737Z,-0.60
2023-03-03T02:26:24.932Z,-0.63
2023-03-03T02:27:26.052Z,-0.62
2023-03-03T02:28:25.330Z,-0.66
2023-03-03T02:29:25.540Z,-0.68
2023-03-03T02:30:25.749Z,-0.66
2023-03-03T02:31:26.031Z,-0.68
2023-03-03T02:32:26.197Z,-0.54
2023-03-03T02:33:27.873Z,-0.65
2023-03-03T02:34:26.391Z,-0.69
2023-03-03T02:35:27.627Z,-0.57
2023-03-03T02:36:27.070Z,-0.50
2023-03-03T02:37:27.084Z,-0.33
2023-03-03T02:38:29.021Z,-0.31
2023-03-03T02:39:28.015Z,-0.45
2023-03-03T02:40:28.018Z,-0.47
2023-03-03T02:41:27.555Z,-0.60
2023-03-03T02:42:27.741Z,-0.52
2023-03-03T02:43:30.032Z,-0.37
2023-03-03T02:44:29.022Z,-0.47
2023-03-03T02:45:28.260Z,-0.59
2023-03-03T02:46:28.360Z,-0.45
2023-03-03T02:47:30.008Z,-0.60
2023-03-03T02:48:29.518Z,-0.60
2023-03-03T02:49:28.819Z,-0.62
2023-03-03T02:50:28.989Z,-0.55
2023-03-03T02:51:29.181Z,-0.60
2023-03-03T02:52:29.337Z,-0.42
2023-03-03T02:53:29.500Z,-0.60
2023-03-03T02:54:29.704Z,-0.50
2023-03-03T02:55:29.844Z,-0.59
2023-03-03T02:56:31.021Z,-0.66
2023-03-03T02:57:30.225Z,-0.65
2023-03-03T02:58:31.081Z,-0.75
2023-03-03T02:59:30.671Z,-0.65
2023-03-03T03:00:30.884Z,-0.63
2023-03-03T03:01:31.555Z,-0.69
2023-03-03T03:02:31.112Z,-0.60
2023-03-03T03:03:31.309Z,-0.51
2023-03-03T03:04:31.593Z,-0.47
2023-03-03T03:05:33.025Z,-0.60
2023-03-03T03:06:32.512Z,-0.66
2023-03-03T03:07:31.905Z,-0.55
2023-03-03T03:08:32.087Z,-0.70
2023-03-03T03:09:33.021Z,-0.51
2023-03-03T03:10:32.430Z,-0.48
2023-03-03T03:11:32.613Z,-0.51
2023-03-03T03:12:32.770Z,-0.50
2023-03-03T03:13:33.571Z,-0.57
2023-03-03T03:14:33.135Z,-0.59
2023-03-03T03:15:33.559Z,-0.55
2023-03-03T03:16:35.077Z,-0.48
2023-03-03T03:17:34.550Z,-0.47
2023-03-03T03:18:33.943Z,-0.54
2023-03-03T03:19:34.153Z,-0.39
2023-03-03T03:20:34.354Z,-0.57
2023-03-03T03:21:35.063Z,-0.45
2023-03-03T03:22:35.574Z,-0.57
2023-03-03T03:23:35.552Z,-0.45
2023-03-03T03:24:35.884Z,-0.45
2023-03-03T03:25:35.266Z,-0.45
2023-03-03T03:26:36.057Z,-0.47
2023-03-03T03:27:35.580Z,-0.50
2023-03-03T03:28:36.594Z,-0.47
2023-03-03T03:29:36.881Z,-0.44
2023-03-03T03:30:36.237Z,-0.52
2023-03-03T03:31:36.330Z,-0.66
2023-03-03T03:32:37.062Z,-0.63
2023-03-03T03:33:37.550Z,-0.75
2023-03-03T03:34:36.944Z,-0.86
2023-03-03T03:35:37.175Z,-0.77
2023-03-03T03:36:37.342Z,-0.69
2023-03-03T03:37:38.057Z,-0.68
2023-03-03T03:38:38.561Z,-0.62
2023-03-03T03:39:38.517Z,-0.65
2023-03-03T03:40:39.025Z,-0.63
2023-03-03T03:41:39.876Z,-0.55
2023-03-03T03:42:38.530Z,-0.57
2023-03-03T03:43:38.734Z,-0.63
2023-03-03T03:44:38.996Z,-0.65
2023-03-03T03:45:39.220Z,-0.63
2023-03-03T03:46:39.310Z,-0.55
2023-03-03T03:47:40.060Z,-0.62
2023-03-03T03:48:40.553Z,-0.60
2023-03-03T03:49:41.019Z,-0.65
2023-03-03T03:50:40.138Z,-0.78
2023-03-03T03:51:40.313Z,-0.69
2023-03-03T03:52:41.020Z,-0.77
2023-03-03T03:53:40.645Z,-0.75
2023-03-03T03:54:41.528Z,-0.65
2023-03-03T03:55:41.037Z,-0.65
2023-03-03T03:56:42.043Z,-0.59
2023-03-03T03:57:41.313Z,-0.54
2023-03-03T03:58:41.538Z,-0.63
2023-03-03T03:59:41.702Z,-0.63
2023-03-03T04:00:41.886Z,-0.65
2023-03-03T04:01:42.063Z,-0.70
2023-03-03T04:02:42.304Z,-0.77
2023-03-03T04:03:42.577Z,-0.69
2023-03-03T04:04:42.515Z,-0.72
2023-03-03T04:05:42.727Z,-0.68
2023-03-03T04:06:43.571Z,-0.63
2023-03-03T04:07:44.062Z,-0.62
2023-03-03T04:08:43.581Z,-0.65
2023-03-03T04:09:43.521Z,-0.69
2023-03-03T04:10:43.702Z,-0.70
2023-03-03T04:11:43.896Z,-0.62
2023-03-03T04:12:46.033Z,-0.66
2023-03-03T04:13:46.890Z,-0.65
2023-03-03T04:14:45.087Z,-0.59
2023-03-03T04:15:44.780Z,-0.66
2023-03-03T04:16:44.841Z,-0.66
2023-03-03T04:17:45.011Z,-0.63
2023-03-03T04:18:46.642Z,-0.60
2023-03-03T04:19:47.533Z,-0.51
2023-03-03T04:20:46.574Z,-0.54
2023-03-03T04:21:45.861Z,-0.62
2023-03-03T04:22:47.549Z,-0.72
2023-03-03T04:23:47.540Z,-0.59
2023-03-03T04:24:47.072Z,-0.62
2023-03-03T04:25:46.477Z,-0.78
2023-03-03T04:26:46.661Z,-0.80
2023-03-03T04:27:46.843Z,-0.73
2023-03-03T04:28:47.044Z,-0.75
2023-03-03T04:29:47.236Z,-0.73
2023-03-03T04:30:49.091Z,-0.72
2023-03-03T04:31:47.613Z,-0.77
2023-03-03T04:32:48.574Z,-0.75
2023-03-03T04:33:48.541Z,-0.66
2023-03-03T04:34:53.153Z,-0.70
2023-03-03T04:35:51.118Z,-0.72
2023-03-03T04:36:48.518Z,-0.70
2023-03-03T04:37:49.580Z,-0.68
2023-03-03T04:38:48.837Z,-0.63
2023-03-03T04:39:50.039Z,-0.60
2023-03-03T04:40:50.081Z,-0.63
2023-03-03T04:41:49.385Z,-0.65
2023-03-03T04:42:49.560Z,-0.66
2023-03-03T04:43:49.735Z,-0.70
2023-03-03T04:44:49.942Z,-0.80
2023-03-03T04:45:51.309Z,-0.75
2023-03-03T04:46:51.354Z,-0.83
2023-03-03T04:47:50.504Z,-0.78
2023-03-03T04:48:51.396Z,-0.68
2023-03-03T04:49:51.123Z,-0.80
2023-03-03T04:50:51.588Z,-0.78
2023-03-03T04:51:51.239Z,-0.73
2023-03-03T04:52:52.080Z,-0.83
2023-03-03T04:53:51.626Z,-0.78
2023-03-03T04:54:52.108Z,-0.81
2023-03-03T04:55:52.900Z,-0.78
2023-03-03T04:56:53.075Z,-0.78
2023-03-03T04:57:52.323Z,-0.70
2023-03-03T04:58:53.085Z,-0.80
2023-03-03T04:59:52.714Z,-0.66
2023-03-03T05:00:52.867Z,-0.59
2023-03-03T05:01:53.104Z,-0.68
2023-03-03T05:02:53.180Z,-0.69
2023-03-03T05:03:53.373Z,-0.68
2023-03-03T05:04:53.643Z,-0.60
2023-03-03T05:05:53.687Z,-0.51
2023-03-03T05:06:53.843Z,-0.54
2023-03-03T05:07:54.026Z,-0.54
2023-03-03T05:08:54.894Z,-0.48
2023-03-03T05:09:54.405Z,-0.47
2023-03-03T05:10:55.570Z,-0.47
2023-03-03T05:11:54.740Z,-0.55
2023-03-03T05:12:54.937Z,-0.55
2023-03-03T05:13:56.069Z,-0.57
2023-03-03T05:14:55.319Z,-0.52
2023-03-03T05:15:56.041Z,-0.60
2023-03-03T05:16:55.708Z,-0.63
2023-03-03T05:17:55.915Z,-0.60
2023-03-03T05:18:56.067Z,-0.52
2023-03-03T05:19:57.900Z,-0.66
2023-03-03T05:20:56.394Z,-0.65
2023-03-03T05:21:57.536Z,-0.60
2023-03-03T05:22:56.718Z,-0.72
2023-03-03T05:23:56.865Z,-0.73
2023-03-03T05:24:57.059Z,-0.63
2023-03-03T05:25:58.084Z,-0.68
2023-03-03T05:26:57.382Z,-0.75
2023-03-03T05:27:57.540Z,-0.80
2023-03-03T05:28:59.033Z,-0.75
2023-03-03T05:29:57.935Z,-0.72
2023-03-03T05:30:58.168Z,-0.77
2023-03-03T05:31:59.085Z,-0.63
2023-03-03T05:32:59.033Z,-0.63
2023-03-03T05:33:58.660Z,-0.72
2023-03-03T05:34:58.849Z,-0.68
2023-03-03T05:35:59.582Z,-0.72
2023-03-03T05:36:59.898Z,-0.77
2023-03-03T05:38:00.119Z,-0.80
2023-03-03T05:38:59.661Z,-0.86
2023-03-03T05:40:01.536Z,-0.89
2023-03-03T05:41:01.035Z,-0.92
2023-03-03T05:42:01.040Z,-0.73
2023-03-03T05:43:00.977Z,-0.75
2023-03-03T05:44:01.100Z,-0.77
2023-03-03T05:45:02.535Z,-0.84
2023-03-03T05:46:01.532Z,-0.87
2023-03-03T05:47:02.394Z,-0.86
2023-03-03T05:48:01.254Z,-0.87
2023-03-03T05:49:01.406Z,-0.87
2023-03-03T05:50:02.544Z,-0.91
2023-03-03T05:51:02.538Z,-0.84
2023-03-03T05:52:01.945Z,-0.86
2023-03-03T05:53:02.105Z,-0.83
2023-03-03T05:54:03.070Z,-0.83
2023-03-03T05:55:02.421Z,-0.75
2023-03-03T05:56:02.560Z,-0.84
2023-03-03T05:57:03.092Z,-0.83
2023-03-03T05:58:02.954Z,-0.78
2023-03-03T05:59:04.041Z,-0.75
2023-03-03T06:00:04.079Z,-0.68
2023-03-03T06:01:04.072Z,-0.68
2023-03-03T06:02:04.580Z,-0.73
2023-03-03T06:03:03.786Z,-0.86
2023-03-03T06:04:03.943Z,-0.77
2023-03-03T06:05:05.099Z,-0.83
2023-03-03T06:06:04.336Z,-0.70
2023-03-03T06:07:04.519Z,-0.65
2023-03-03T06:08:04.678Z,-0.65
2023-03-03T06:09:04.897Z,-0.75
2023-03-03T06:10:05.134Z,-0.87
2023-03-03T06:11:06.100Z,-0.83
2023-03-03T06:12:05.592Z,-0.84
2023-03-03T06:13:07.050Z,-0.80
2023-03-03T06:14:05.678Z,-0.81
2023-03-03T06:15:05.894Z,-0.70
2023-03-03T06:16:06.042Z,-0.70
2023-03-03T06:17:07.080Z,-0.68
2023-03-03T06:18:06.240Z,-0.62
2023-03-03T06:19:07.080Z,-0.60
2023-03-03T06:20:07.094Z,-0.57
2023-03-03T06:21:06.755Z,-0.65
2023-03-03T06:22:06.945Z,-0.68
2023-03-03T06:23:07.144Z,-0.62
2023-03-03T06:24:07.342Z,-0.65
2023-03-03T06:25:07.592Z,-0.72
2023-03-03T06:26:08.646Z,-0.73
2023-03-03T06:27:07.826Z,-0.68
2023-03-03T06:28:07.996Z,-0.72
2023-03-03T06:29:09.088Z,-0.69
2023-03-03T06:30:08.325Z,-0.68
2023-03-03T06:31:08.596Z,-0.73
2023-03-03T06:32:08.743Z,-0.70
2023-03-03T06:33:08.794Z,-0.60
2023-03-03T06:34:09.601Z,-0.68
2023-03-03T06:35:10.050Z,-0.52
2023-03-03T06:36:09.310Z,-0.57
2023-03-03T06:37:10.556Z,-0.62
2023-03-03T06:38:09.703Z,-0.69
2023-03-03T06:39:11.403Z,-0.60
2023-03-03T06:40:10.032Z,-0.62
2023-03-03T06:41:11.083Z,-0.57
2023-03-03T06:42:10.380Z,-0.50
2023-03-03T06:43:10.578Z,-0.59
2023-03-03T06:44:10.752Z,-0.60
2023-03-03T06:45:10.930Z,-0.57
2023-03-03T06:46:11.704Z,-0.65
2023-03-03T06:47:11.256Z,-0.69
2023-03-03T06:48:11.435Z,-0.63
2023-03-03T06:49:12.545Z,-0.73
2023-03-03T06:50:11.796Z,-0.65
2023-03-03T06:51:11.966Z,-0.65
2023-03-03T06:52:12.129Z,-0.72
2023-03-03T06:53:12.598Z,-0.62
2023-03-03T06:54:12.503Z,-0.55
2023-03-03T06:55:12.661Z,-0.63
2023-03-03T06:56:12.841Z,-0.63
2023-03-03T06:57:13.005Z,-0.62
2023-03-03T06:58:13.601Z,-0.45
2023-03-03T06:59:13.373Z,-0.42
2023-03-03T07:00:14.566Z,-0.47
2023-03-03T07:01:13.761Z,-0.39
2023-03-03T07:02:14.582Z,-0.41
2023-03-03T07:03:15.095Z,-0.44
2023-03-03T07:04:15.159Z,-0.41
2023-03-03T07:05:14.566Z,-0.47
2023-03-03T07:06:15.112Z,-0.45
2023-03-03T07:07:14.886Z,-0.45
2023-03-03T07:08:16.571Z,-0.48
2023-03-03T07:09:16.092Z,-0.68
2023-03-03T07:10:15.325Z,-0.63
2023-03-03T07:11:16.123Z,-0.70
2023-03-03T07:12:16.487Z,-0.73
2023-03-03T07:13:17.571Z,-0.73
2023-03-03T07:14:18.055Z,-0.78
2023-03-03T07:15:16.940Z,-0.65
2023-03-03T07:16:16.481Z,-0.65
2023-03-03T07:17:16.572Z,-0.65
2023-03-03T07:18:17.111Z,-0.60
2023-03-03T07:19:16.873Z,-0.57
2023-03-03T07:20:17.017Z,-0.48
2023-03-03T07:21:18.109Z,-0.45
2023-03-03T07:22:17.351Z,-0.54
2023-03-03T07:23:17.522Z,-0.57
2023-03-03T07:24:17.675Z,-0.66
2023-03-03T07:25:17.796Z,-0.63
2023-03-03T07:26:18.600Z,-0.59
2023-03-03T07:27:18.095Z,-0.57
2023-03-03T07:28:18.215Z,-0.62
2023-03-03T07:29:18.387Z,-0.62
2023-03-03T07:30:19.564Z,-0.57
2023-03-03T07:31:18.702Z,-0.65
2023-03-03T07:32:19.485Z,-0.63
2023-03-03T07:33:20.053Z,-0.63
2023-03-03T07:34:20.300Z,-0.60
2023-03-03T07:35:20.078Z,-0.57
2023-03-03T07:36:19.597Z,-0.63
2023-03-03T07:37:20.608Z,-0.68
2023-03-03T07:38:21.574Z,-0.45
2023-03-03T07:39:20.103Z,-0.45
2023-03-03T07:40:20.259Z,-0.54
2023-03-03T07:41:20.394Z,-0.48
2023-03-03T07:42:20.627Z,-0.51
2023-03-03T07:43:20.758Z,-0.59
2023-03-03T07:44:21.592Z,-0.41
2023-03-03T07:45:23.081Z,-0.44
2023-03-03T07:46:21.489Z,-0.63
2023-03-03T07:47:21.624Z,-0.55
2023-03-03T07:48:21.756Z,-0.60
2023-03-03T07:49:21.916Z,-0.62
2023-03-03T07:50:22.094Z,-0.50
2023-03-03T07:51:22.264Z,-0.50
2023-03-03T07:52:22.442Z,-0.44
2023-03-03T07:53:22.596Z,-0.44
2023-03-03T07:54:23.642Z,-0.48
2023-03-03T07:55:22.911Z,-0.47
2023-03-03T07:56:23.936Z,-0.37
2023-03-03T07:57:25.436Z,-0.42
2023-03-03T07:58:24.117Z,-0.31
2023-03-03T07:59:24.585Z,-0.39
2023-03-03T08:00:23.909Z,-0.39
2023-03-03T08:01:23.982Z,-0.31
2023-03-03T08:02:25.572Z,-0.36
2023-03-03T08:03:25.110Z,-0.36
2023-03-03T08:04:24.561Z,-0.42
2023-03-03T08:05:25.713Z,-0.48
2023-03-03T08:06:24.884Z,-0.42
2023-03-03T08:07:25.091Z,-0.31
2023-03-03T08:08:27.074Z,-0.36
2023-03-03T08:09:25.449Z,-0.33
2023-03-03T08:10:25.694Z,-0.30
2023-03-03T08:11:27.577Z,-0.34
2023-03-03T08:12:26.000Z,-0.29
2023-03-03T08:13:26.170Z,-0.41
2023-03-03T08:14:27.089Z,-0.42
2023-03-03T08:15:27.116Z,-0.36
2023-03-03T08:16:26.760Z,-0.42
2023-03-03T08:17:26.944Z,-0.39
2023-03-03T08:18:27.973Z,-0.34
2023-03-03T08:19:27.251Z,-0.33
2023-03-03T08:20:28.560Z,-0.34
2023-03-03T08:21:28.102Z,-0.33
2023-03-03T08:22:27.742Z,-0.36
2023-03-03T08:23:27.876Z,-0.22
2023-03-03T08:24:28.128Z,-0.26
2023-03-03T08:25:28.314Z,-0.22
2023-03-03T08:26:29.098Z,-0.29
2023-03-03T08:27:28.749Z,-0.19
2023-03-03T08:28:28.971Z,-0.18
2023-03-03T08:29:30.064Z,-0.23
2023-03-03T08:30:29.319Z,-0.27
2023-03-03T08:31:40.802Z,-0.24
2023-03-03T08:32:32.239Z,-0.23
2023-03-03T08:33:30.557Z,-0.31
2023-03-03T08:34:29.950Z,-0.23
2023-03-03T08:35:30.222Z,-0.34
2023-03-03T08:36:30.256Z,-0.24
2023-03-03T08:37:30.434Z,-0.29
2023-03-03T08:38:31.556Z,-0.37
2023-03-03T08:39:30.829Z,-0.19
2023-03-03T08:40:31.008Z,-0.11
2023-03-03T08:41:31.168Z,-0.08
2023-03-03T08:42:32.065Z,-0.11
2023-03-03T08:43:31.590Z,-0.04
2023-03-03T08:44:32.488Z,-0.11
2023-03-03T08:45:31.913Z,-0.11
2023-03-03T08:46:32.151Z,-0.13
2023-03-03T08:47:32.261Z,-0.18
2023-03-03T08:48:33.070Z,-0.23
2023-03-03T08:49:32.639Z,-0.19
2023-03-03T08:50:32.870Z,-0.11
2023-03-03T08:51:33.026Z,-0.12
2023-03-03T08:52:33.204Z,-0.15
2023-03-03T08:53:34.100Z,-0.27
2023-03-03T08:54:34.562Z,-0.29
2023-03-03T08:55:34.622Z,-0.34
2023-03-03T08:56:33.928Z,-0.30
2023-03-03T08:57:34.113Z,-0.34
2023-03-03T08:58:36.296Z,-0.30
2023-03-03T08:59:36.116Z,-0.29
2023-03-03T09:00:34.633Z,-0.30
2023-03-03T09:01:34.904Z,-0.19
2023-03-03T09:02:35.565Z,-0.15
2023-03-03T09:03:35.255Z,-0.27
2023-03-03T09:04:35.514Z,-0.26
2023-03-03T09:05:35.605Z,-0.22
2023-03-03T09:06:35.806Z,-0.19
2023-03-03T09:07:36.575Z,-0.13
2023-03-03T09:08:36.245Z,-0.11
2023-03-03T09:09:37.071Z,-0.13
2023-03-03T09:10:36.607Z,-0.15
2023-03-03T09:11:36.767Z,-0.18
2023-03-03T09:12:37.003Z,-0.16
2023-03-03T09:13:37.198Z,-0.16
2023-03-03T09:14:37.407Z,-0.06
2023-03-03T09:15:37.640Z,-0.11
2023-03-03T09:16:38.611Z,-0.18
2023-03-03T09:17:37.998Z,-0.05
2023-03-03T09:18:38.205Z,-0.04
2023-03-03T09:19:38.385Z,-0.05
2023-03-03T09:20:38.567Z,-0.01
2023-03-03T09:21:39.431Z,-0.06
2023-03-03T09:22:38.947Z,-0.01
2023-03-03T09:23:39.141Z,-0.01
2023-03-03T09:24:40.109Z,0.02
2023-03-03T09:25:42.196Z,-0.09
2023-03-03T09:26:41.573Z,-0.01
2023-03-03T09:27:39.851Z,0.06
2023-03-03T09:28:40.049Z,-0.05
2023-03-03T09:29:41.119Z,-0.06
2023-03-03T09:30:42.074Z,0.06
2023-03-03T09:31:41.192Z,-0.09
2023-03-03T09:32:40.726Z,0.07
2023-03-03T09:33:40.922Z,0.09
2023-03-03T09:34:41.627Z,0.18
2023-03-03T09:35:42.649Z,0.15
2023-03-03T09:36:41.440Z,0.36
2023-03-03T09:37:41.606Z,0.07
2023-03-03T09:38:41.754Z,0.20
2023-03-03T09:39:41.913Z,0.13
2023-03-03T09:40:42.103Z,0.09
2023-03-03T09:41:42.282Z,0.12
2023-03-03T09:42:42.466Z,0.28
2023-03-03T09:43:43.580Z,0.18
2023-03-03T09:44:44.607Z,0.16
2023-03-03T09:45:43.513Z,0.21
2023-03-03T09:46:43.268Z,0.20
2023-03-03T09:47:43.405Z,0.28
2023-03-03T09:48:43.589Z,0.27
2023-03-03T09:49:45.070Z,0.36
2023-03-03T09:50:45.435Z,0.42
2023-03-03T09:51:44.624Z,0.48
2023-03-03T09:52:44.378Z,0.36
2023-03-03T09:53:45.076Z,0.28
2023-03-03T09:54:45.578Z,0.33
2023-03-03T09:55:45.574Z,0.42
2023-03-03T09:56:46.077Z,0.34
2023-03-03T09:57:45.371Z,0.38
2023-03-03T09:58:45.620Z,0.31
2023-03-03T09:59:46.576Z,0.30
2023-03-03T10:00:45.829Z,0.23
2023-03-03T10:01:46.629Z,0.18
2023-03-03T10:02:46.178Z,0.20
2023-03-03T10:03:46.413Z,0.41
2023-03-03T10:04:46.681Z,0.41
2023-03-03T10:05:46.616Z,0.31
2023-03-03T10:06:47.573Z,0.33
2023-03-03T10:07:46.969Z,0.45
2023-03-03T10:08:48.091Z,0.39
2023-03-03T10:09:47.510Z,0.46
2023-03-03T10:10:47.592Z,0.41
2023-03-03T10:11:48.797Z,0.39
2023-03-03T10:12:48.438Z,0.43
2023-03-03T10:13:48.131Z,0.46
2023-03-03T10:14:49.363Z,0.48
2023-03-03T10:15:48.553Z,0.45
2023-03-03T10:16:49.862Z,0.51
2023-03-03T10:17:49.628Z,0.49
2023-03-03T10:18:48.974Z,0.61
2023-03-03T10:19:49.161Z,0.72
2023-03-03T10:20:52.406Z,0.79
2023-03-03T10:21:52.253Z,0.79
2023-03-03T10:22:50.625Z,0.76
2023-03-03T10:23:49.944Z,0.68
2023-03-03T10:24:50.129Z,0.67
2023-03-03T10:25:50.584Z,0.65
2023-03-03T10:27:05.346Z,0.62
2023-03-03T10:27:53.602Z,0.61
2023-03-03T10:28:50.739Z,0.78
2023-03-03T10:29:51.614Z,0.82
2023-03-03T10:31:03.777Z,0.89
2023-03-03T10:31:53.534Z,0.82
2023-03-03T10:32:51.599Z,0.94
2023-03-03T10:33:52.247Z,0.86
2023-03-03T10:34:51.785Z,0.86
2023-03-03T10:36:06.268Z,0.80
2023-03-03T10:36:54.207Z,0.94
2023-03-03T10:37:53.610Z,0.97
2023-03-03T10:38:53.623Z,1.01
2023-03-03T10:39:52.879Z,0.97
2023-03-03T10:40:53.067Z,0.90
2023-03-03T10:41:54.076Z,0.90
2023-03-03T10:42:54.079Z,1.00
2023-03-03T10:43:53.596Z,1.08
2023-03-03T10:44:54.577Z,1.19
2023-03-03T10:45:54.024Z,1.06
2023-03-03T10:46:54.220Z,1.22
2023-03-03T10:47:54.435Z,1.21
2023-03-03T10:48:55.131Z,1.15
2023-03-03T10:49:55.617Z,1.06
2023-03-03T10:50:55.040Z,0.98
2023-03-03T10:51:55.240Z,0.94
2023-03-03T10:52:56.079Z,0.96
2023-03-03T10:53:56.578Z,0.97
2023-03-03T10:54:55.836Z,0.92
2023-03-03T10:55:55.997Z,0.96
2023-03-03T10:56:57.619Z,0.94
2023-03-03T10:57:56.391Z,0.96
2023-03-03T10:58:57.830Z,1.06
2023-03-03T10:59:56.818Z,0.90
2023-03-03T11:00:57.034Z,0.96
2023-03-03T11:01:57.569Z,0.96
2023-03-03T11:02:57.388Z,0.94
2023-03-03T11:03:58.118Z,0.98
2023-03-03T11:04:57.822Z,1.14
2023-03-03T11:05:58.297Z,1.22
2023-03-03T11:06:59.136Z,1.10
2023-03-03T11:07:59.604Z,1.04
2023-03-03T11:08:58.769Z,1.18
2023-03-03T11:09:59.699Z,1.16
2023-03-03T11:10:59.725Z,1.07
2023-03-03T11:11:59.872Z,1.29
2023-03-03T11:12:59.712Z,1.34
2023-03-03T11:14:00.128Z,1.43
2023-03-03T11:15:00.257Z,1.39
2023-03-03T11:16:00.927Z,1.42
2023-03-03T11:17:00.638Z,1.50
2023-03-03T11:18:00.127Z,1.52
2023-03-03T11:19:01.497Z,1.62
2023-03-03T11:20:02.595Z,1.75
2023-03-03T11:21:01.144Z,1.72
2023-03-03T11:22:01.964Z,1.71
2023-03-03T11:23:01.068Z,1.73
2023-03-03T11:24:01.239Z,1.72
2023-03-03T11:25:01.516Z,1.93
2023-03-03T11:26:01.554Z,1.75
2023-03-03T11:27:02.415Z,1.73
2023-03-03T11:28:01.870Z,1.47
2023-03-03T11:29:03.592Z,1.43
2023-03-03T11:30:03.096Z,1.54
2023-03-03T11:31:04.146Z,1.57
2023-03-03T11:32:02.567Z,1.61
2023-03-03T11:33:03.594Z,1.69
2023-03-03T11:34:03.139Z,1.68
2023-03-03T11:35:04.055Z,1.68
2023-03-03T11:36:03.394Z,1.87
2023-03-03T11:37:03.558Z,1.97
2023-03-03T11:38:03.727Z,1.99
2023-03-03T11:39:03.893Z,1.87
2023-03-03T11:40:04.077Z,1.89
2023-03-03T11:41:04.258Z,1.85
2023-03-03T11:42:04.412Z,1.73
2023-03-03T11:43:04.622Z,1.76
2023-03-03T11:44:04.798Z,1.68
2023-03-03T11:45:04.980Z,1.69
2023-03-03T11:46:06.176Z,1.79
2023-03-03T11:47:06.359Z,1.68
2023-03-03T11:48:05.506Z,1.82
2023-03-03T11:49:05.699Z,1.76
2023-03-03T11:50:05.871Z,1.76
2023-03-03T11:51:06.658Z,1.76
2023-03-03T11:52:06.199Z,1.89
2023-03-03T11:53:06.655Z,1.87
2023-03-03T11:54:06.543Z,1.97
2023-03-03T11:55:07.600Z,1.97
2023-03-03T11:56:06.875Z,1.97
2023-03-03T11:57:07.055Z,1.82
2023-03-03T11:58:08.132Z,1.73
2023-03-03T11:59:08.100Z,1.85
2023-03-03T12:00:08.597Z,1.91
2023-03-03T12:01:07.847Z,1.83
2023-03-03T12:02:08.028Z,1.79
2023-03-03T12:03:08.225Z,1.82
2023-03-03T12:04:09.135Z,2.04
2023-03-03T12:05:08.503Z,2.28
2023-03-03T12:06:10.332Z,2.40
2023-03-03T12:07:19.008Z,2.53
2023-03-03T12:08:11.199Z,2.71
2023-03-03T12:09:09.156Z,2.48
2023-03-03T12:10:11.119Z,2.51
2023-03-03T12:11:09.446Z,2.56
2023-03-03T12:12:10.153Z,2.63
2023-03-03T12:13:11.126Z,2.49
2023-03-03T12:14:10.007Z,2.41
2023-03-03T12:15:11.142Z,2.52
2023-03-03T12:16:10.423Z,2.67
2023-03-03T12:17:10.568Z,2.64
2023-03-03T12:18:10.701Z,2.56
2023-03-03T12:19:10.892Z,2.31
2023-03-03T12:20:11.062Z,2.22
2023-03-03T12:21:12.138Z,2.12
2023-03-03T12:22:11.388Z,2.12
2023-03-03T12:23:11.534Z,1.99
2023-03-03T12:24:11.736Z,2.02
2023-03-03T12:25:12.651Z,2.15
2023-03-03T12:26:12.607Z,2.31
2023-03-03T12:27:12.247Z,2.17
2023-03-03T12:28:13.153Z,2.23
2023-03-03T12:29:13.149Z,2.28
2023-03-03T12:30:12.664Z,2.44
2023-03-03T12:31:12.846Z,2.49
2023-03-03T12:32:13.091Z,2.64
2023-03-03T12:33:14.153Z,2.53
2023-03-03T12:34:13.407Z,2.51
2023-03-03T12:35:13.579Z,2.49
2023-03-03T12:36:13.793Z,2.28
2023-03-03T12:37:14.655Z,2.33
2023-03-03T12:38:15.146Z,2.35
2023-03-03T12:39:17.747Z,2.41
2023-03-03T12:40:16.232Z,2.38
2023-03-03T12:41:14.806Z,2.33
2023-03-03T12:42:15.012Z,2.38
2023-03-03T12:43:15.217Z,2.56
2023-03-03T12:44:15.392Z,2.49
2023-03-03T12:45:16.121Z,2.30
2023-03-03T12:46:16.698Z,2.27
2023-03-03T12:47:15.991Z,2.27
2023-03-03T12:48:16.177Z,2.35
2023-03-03T12:49:16.670Z,2.37
2023-03-03T12:50:16.594Z,2.46
2023-03-03T12:51:17.776Z,2.51
2023-03-03T12:52:16.927Z,2.56
2023-03-03T12:53:18.971Z,2.64
2023-03-03T12:54:18.148Z,2.41
2023-03-03T12:55:17.434Z,2.49
2023-03-03T12:56:17.680Z,2.51
2023-03-03T12:57:19.975Z,2.59
2023-03-03T12:58:18.035Z,2.67
2023-03-03T12:59:18.547Z,2.53
2023-03-03T13:00:19.480Z,2.46
2023-03-03T13:01:18.665Z,2.40